Time;durP1;ratioP1;P1;durP2;ratioP2;P2;SDS_P1;SDS_P2;PMS_P1;PMS_P2;Temp;Humidity;BMP_temperature;BMP_pressure;BME280_temperature;BME280_humidity;BME280_pressure;Samples;Min_cycle;Max_cycle;Signal;HPM_P1;HPM_P2
2023/07/17 00:00:12;;;;;;;3.70;2.50;;;16.90;1.00;;;;;;4977551;28;20212;-85
2023/07/17 00:02:39;;;;;;;5.77;3.03;;;17.00;1.00;;;;;;4978565;28;20185;-84
2023/07/17 00:05:05;;;;;;;3.77;2.20;;;16.90;1.00;;;;;;4977389;28;20199;-84
2023/07/17 00:07:31;;;;;;;4.07;2.97;;;16.80;32.60;;;;;;4992888;28;20192;-84
2023/07/17 00:09:57;;;;;;;5.73;2.57;;;16.70;1.00;;;;;;4975754;28;20219;-85
2023/07/17 00:12:22;;;;;;;4.57;2.70;;;16.60;1.00;;;;;;4978319;28;20176;-84
2023/07/17 00:14:48;;;;;;;4.97;2.77;;;16.70;1.00;;;;;;4992473;28;20188;-85
2023/07/17 00:17:14;;;;;;;5.93;2.60;;;16.50;1.00;;;;;;4976405;28;20204;-84
2023/07/17 00:19:40;;;;;;;4.13;2.70;;;16.40;1.00;;;;;;4976867;28;20267;-84
2023/07/17 00:22:06;;;;;;;5.30;3.07;;;16.10;1.00;;;;;;4976461;28;20219;-84
2023/07/17 00:24:32;;;;;;;5.23;2.83;;;15.90;67.70;;;;;;4977593;28;20177;-85
2023/07/17 00:26:58;;;;;;;5.47;3.50;;;15.80;99.90;;;;;;4977035;28;20215;-84
2023/07/17 00:29:30;;;;;;;5.37;3.50;;;16.20;1.00;;;;;;4975938;28;20187;-84
2023/07/17 00:31:56;;;;;;;4.43;3.50;;;16.30;1.00;;;;;;4976892;28;20204;-85
2023/07/17 00:34:22;;;;;;;5.67;3.50;;;16.30;1.00;;;;;;4975737;28;20180;-84
2023/07/17 00:36:48;;;;;;;4.73;3.47;;;16.20;1.00;;;;;;4975878;28;20266;-84
2023/07/17 00:39:14;;;;;;;5.20;3.70;;;16.10;1.00;;;;;;4992029;28;20204;-84
2023/07/17 00:41:40;;;;;;;4.80;3.70;;;16.00;1.00;;;;;;4974916;28;20187;-84
2023/07/17 00:44:05;;;;;;;5.33;4.07;;;15.80;99.90;;;;;;4975792;28;20275;-84
2023/07/17 00:46:33;;;;;;;5.70;3.80;;;15.70;1.00;;;;;;4977040;28;20211;-84
2023/07/17 00:49:00;;;;;;;4.73;3.57;;;15.80;1.00;;;;;;4976855;28;20175;-84
2023/07/17 00:51:26;;;;;;;6.97;4.00;;;15.90;1.00;;;;;;4975153;28;20187;-84
2023/07/17 00:53:52;;;;;;;6.27;4.20;;;16.00;99.90;;;;;;4976583;28;20172;-84
2023/07/17 00:56:18;;;;;;;5.10;3.80;;;16.10;99.90;;;;;;4991936;28;20545;-84
2023/07/17 00:58:44;;;;;;;5.33;3.53;;;16.00;99.90;;;;;;4976932;28;20180;-84
2023/07/17 01:01:12;;;;;;;6.43;4.13;;;15.90;99.90;;;;;;4974284;28;20676;-85
2023/07/17 01:03:38;;;;;;;5.03;3.47;;;15.90;99.90;;;;;;4976773;28;20188;-84
2023/07/17 01:06:04;;;;;;;5.37;3.60;;;15.90;99.90;;;;;;4974837;28;20251;-84
2023/07/17 01:08:31;;;;;;;6.10;4.10;;;16.00;99.90;;;;;;4976611;28;20615;-84
2023/07/17 01:10:56;;;;;;;5.27;3.70;;;16.00;99.90;;;;;;4976423;28;20215;-85
2023/07/17 01:13:22;;;;;;;4.83;3.50;;;16.00;99.90;;;;;;4975762;28;20623;-83
2023/07/17 01:15:47;;;;;;;5.70;4.10;;;15.90;99.90;;;;;;4975668;28;20812;-85
2023/07/17 01:18:13;;;;;;;7.23;3.93;;;15.90;99.90;;;;;;4976825;28;20200;-84
2023/07/17 01:20:40;;;;;;;4.80;3.70;;;15.90;99.90;;;;;;4974817;28;20267;-84
2023/07/17 01:23:06;;;;;;;6.37;3.77;;;15.90;99.90;;;;;;4974722;28;20176;-84
2023/07/17 01:25:31;;;;;;;6.27;3.80;;;15.80;99.90;;;;;;4974843;28;20192;-85
2023/07/17 01:27:57;;;;;;;4.77;3.37;;;15.80;99.90;;;;;;4974756;28;20283;-86
2023/07/17 01:30:23;;;;;;;5.17;3.60;;;15.80;99.90;;;;;;4976108;28;20204;-84
2023/07/17 01:32:48;;;;;;;4.90;3.80;;;15.80;99.90;;;;;;4976453;28;20184;-84
2023/07/17 01:35:14;;;;;;;5.93;3.20;;;15.90;99.90;;;;;;4976452;28;20212;-84
2023/07/17 01:37:40;;;;;;;4.87;3.27;;;15.90;99.90;;;;;;4975265;28;20571;-84
2023/07/17 01:40:10;;;;;;;6.57;3.87;;;16.00;99.90;;;;;;4974307;28;20173;-84
2023/07/17 01:42:36;;;;;;;4.80;3.20;;;15.80;99.90;;;;;;4974548;28;20185;-84
2023/07/17 01:45:03;;;;;;;5.63;4.17;;;15.70;99.90;;;;;;4976562;28;20179;-84
2023/07/17 01:47:29;;;;;;;5.27;3.80;;;15.60;1.00;;;;;;5015936;23;20222;-78
2023/07/17 01:49:55;;;;;;;5.07;3.70;;;15.70;1.00;;;;;;5029652;28;20170;-79
2023/07/17 01:52:20;;;;;;;5.07;3.50;;;15.70;99.90;;;;;;5030296;28;20185;-79
2023/07/17 01:54:46;;;;;;;5.93;3.17;;;15.60;99.90;;;;;;5030245;28;20268;-79
2023/07/17 01:57:11;;;;;;;6.50;4.03;;;15.60;99.90;;;;;;5030220;28;20189;-79
2023/07/17 01:59:37;;;;;;;6.27;4.10;;;15.70;99.90;;;;;;5031221;28;20194;-78
2023/07/17 02:02:03;;;;;;;6.43;4.30;;;15.70;1.00;;;;;;5030527;28;20228;-78
2023/07/17 02:04:28;;;;;;;6.53;4.10;;;15.70;1.00;;;;;;5030556;28;20173;-79
2023/07/17 02:06:54;;;;;;;6.83;4.20;;;15.80;1.00;;;;;;5031238;28;20257;-78
2023/07/17 02:09:20;;;;;;;5.07;3.63;;;15.80;1.00;;;;;;5030819;28;20654;-79
2023/07/17 02:11:45;;;;;;;7.57;5.13;;;15.80;1.00;;;;;;5029804;28;20194;-79
2023/07/17 02:14:11;;;;;;;6.07;4.23;;;15.80;1.00;;;;;;5032799;28;20577;-79
2023/07/17 02:16:36;;;;;;;5.17;4.17;;;15.60;1.00;;;;;;5033654;28;20780;-78
2023/07/17 02:19:02;;;;;;;5.77;3.53;;;15.60;1.00;;;;;;5033609;28;20194;-78
2023/07/17 02:21:28;;;;;;;6.83;4.07;;;15.60;1.00;;;;;;5034410;28;20213;-79
2023/07/17 02:23:53;;;;;;;5.30;3.97;;;15.40;1.00;;;;;;5033440;28;20186;-78
2023/07/17 02:26:19;;;;;;;5.57;3.80;;;15.50;1.00;;;;;;5033484;28;20643;-79
2023/07/17 02:28:44;;;;;;;5.53;3.83;;;15.50;1.00;;;;;;5033695;28;20190;-79
2023/07/17 02:31:10;;;;;;;5.67;3.73;;;15.60;1.00;;;;;;5034173;28;20173;-79
2023/07/17 02:33:35;;;;;;;5.77;4.23;;;15.60;99.90;;;;;;5034669;28;20206;-79
2023/07/17 02:36:03;;;;;;;5.33;3.90;;;15.40;99.90;;;;;;5034762;28;20182;-78
2023/07/17 02:38:29;;;;;;;5.07;3.50;;;15.30;1.00;;;;;;5033232;28;20225;-79
2023/07/17 02:40:54;;;;;;;5.43;3.50;;;15.30;1.00;;;;;;5032629;28;20198;-79
2023/07/17 02:43:20;;;;;;;5.87;3.87;;;15.40;1.00;;;;;;5034756;28;20194;-78
2023/07/17 02:45:45;;;;;;;6.23;3.73;;;15.40;1.00;;;;;;5034604;28;20206;-78
2023/07/17 02:48:11;;;;;;;4.43;3.90;;;15.40;1.00;;;;;;5034260;28;20293;-79
2023/07/17 02:50:37;;;;;;;6.77;4.20;;;15.30;1.00;;;;;;5033847;28;20228;-78
2023/07/17 02:53:02;;;;;;;4.90;3.83;;;15.40;1.00;;;;;;5033061;28;20200;-79
2023/07/17 02:55:28;;;;;;;5.50;3.90;;;15.40;1.00;;;;;;5034065;28;20179;-79
2023/07/17 02:57:53;;;;;;;5.67;3.83;;;15.40;1.00;;;;;;5034058;28;20198;-79
2023/07/17 03:00:19;;;;;;;5.23;3.90;;;15.50;1.00;;;;;;5032421;28;20669;-79
2023/07/17 03:02:46;;;;;;;5.60;3.87;;;15.60;99.90;;;;;;5032879;28;20182;-79
2023/07/17 03:05:12;;;;;;;5.53;4.07;;;15.60;99.90;;;;;;5032890;28;20325;-78
2023/07/17 03:07:45;;;;;;;5.07;3.97;;;15.30;1.00;;;;;;5034093;28;20280;-79
2023/07/17 03:10:12;;;;;;;5.13;4.30;;;15.10;1.00;;;;;;5032050;28;20660;-79
2023/07/17 03:12:37;;;;;;;6.87;3.97;;;15.10;99.90;;;;;;5034034;28;20554;-80
2023/07/17 03:15:04;;;;;;;5.43;4.10;;;15.20;1.00;;;;;;5032554;28;20179;-79
2023/07/17 03:17:30;;;;;;;6.10;3.50;;;15.30;99.90;;;;;;5033615;28;20281;-79
2023/07/17 03:19:57;;;;;;;5.60;3.63;;;15.20;1.00;;;;;;5033660;28;20171;-79
2023/07/17 03:22:23;;;;;;;4.97;3.37;;;15.00;99.90;;;;;;5033771;28;20163;-79
2023/07/17 03:24:48;;;;;;;5.37;3.30;;;15.10;99.90;;;;;;5033861;28;20178;-78
2023/07/17 03:27:14;;;;;;;5.77;3.80;;;14.90;99.90;;;;;;5032265;28;20271;-80
2023/07/17 03:29:39;;;;;;;6.30;3.67;;;14.80;99.90;;;;;;5033318;28;20178;-78
2023/07/17 03:32:06;;;;;;;4.00;3.60;;;14.90;1.00;;;;;;5033642;28;20186;-78
2023/07/17 03:34:32;;;;;;;5.60;3.90;;;14.80;99.90;;;;;;5033611;28;20194;-78
2023/07/17 03:36:57;;;;;;;4.40;3.90;;;14.70;1.00;;;;;;5032290;28;20222;-78
2023/07/17 03:39:23;;;;;;;6.17;4.23;;;14.40;99.90;;;;;;5032145;28;20201;-79
2023/07/17 03:41:48;;;;;;;6.90;4.27;;;14.20;1.00;;;;;;5032856;28;20181;-79
2023/07/17 03:44:14;;;;;;;4.83;3.83;;;14.20;29.50;;;;;;5033495;28;20170;-78
2023/07/17 03:46:40;;;;;;;6.10;3.50;;;14.20;1.00;;;;;;5031933;28;20285;-78
2023/07/17 03:49:05;;;;;;;5.20;3.80;;;14.10;1.00;;;;;;5033216;28;20194;-79
2023/07/17 03:51:31;;;;;;;4.70;3.70;;;14.10;39.70;;;;;;5031393;28;20539;-79
2023/07/17 03:53:56;;;;;;;5.53;3.70;;;14.10;99.90;;;;;;5033009;28;20210;-78
2023/07/17 03:56:22;;;;;;;4.93;3.60;;;14.00;1.00;;;;;;5032115;28;20185;-79
2023/07/17 03:58:48;;;;;;;4.33;2.70;;;14.10;99.90;;;;;;5031925;28;20194;-78
2023/07/17 04:01:13;;;;;;;5.77;2.53;;;14.10;1.00;;;;;;5032555;28;20646;-80
2023/07/17 04:03:39;;;;;;;3.77;2.40;;;14.20;99.90;;;;;;5033001;28;20178;-78
2023/07/17 04:06:05;;;;;;;4.57;2.60;;;14.30;1.00;;;;;;5031733;28;20202;-79
2023/07/17 04:08:31;;;;;;;4.10;2.60;;;14.50;25.60;;;;;;5032608;28;20222;-78
2023/07/17 04:10:56;;;;;;;3.57;2.73;;;14.50;1.00;;;;;;5031295;28;20260;-78
2023/07/17 04:13:22;;;;;;;5.13;2.30;;;14.50;1.00;;;;;;5033348;28;20529;-79
2023/07/17 04:15:48;;;;;;;3.57;2.13;;;14.60;1.00;;;;;;5031515;28;20232;-79
2023/07/17 04:18:14;;;;;;;3.90;2.83;;;14.60;99.90;;;;;;5032661;28;20206;-79
2023/07/17 04:20:40;;;;;;;2.73;2.30;;;14.60;1.00;;;;;;5031011;28;20174;-79
2023/07/17 04:23:05;;;;;;;2.87;2.30;;;14.60;99.90;;;;;;5031348;28;20535;-79
2023/07/17 04:25:31;;;;;;;3.30;2.50;;;14.60;1.00;;;;;;5031480;28;20301;-79
2023/07/17 04:27:57;;;;;;;2.90;2.13;;;14.50;99.90;;;;;;5031341;28;20194;-78
2023/07/17 04:30:23;;;;;;;3.07;2.07;;;14.60;99.90;;;;;;5032043;28;20232;-79
2023/07/17 04:32:51;;;;;;;4.30;2.07;;;14.60;1.00;;;;;;5032572;28;20166;-79
2023/07/17 04:35:17;;;;;;;4.17;2.20;;;14.80;99.90;;;;;;5030840;28;20550;-79
2023/07/17 04:37:42;;;;;;;3.20;2.33;;;14.90;1.00;;;;;;5030786;28;20194;-79
2023/07/17 04:40:08;;;;;;;3.57;2.30;;;15.00;1.00;;;;;;5031799;28;20167;-79
2023/07/17 04:42:34;;;;;;;5.00;2.80;;;15.00;1.00;;;;;;5031218;28;20178;-78
2023/07/17 04:44:59;;;;;;;6.20;2.23;;;15.10;1.00;;;;;;5032390;28;20204;-79
2023/07/17 04:47:25;;;;;;;4.13;2.50;;;15.10;29.50;;;;;;5032056;28;20240;-80
2023/07/17 04:49:53;;;;;;;5.47;2.90;;;15.00;1.00;;;;;;5030510;28;20261;-79
2023/07/17 04:52:19;;;;;;;3.73;2.57;;;15.00;1.00;;;;;;5031222;28;20175;-79
2023/07/17 04:54:44;;;;;;;3.33;2.37;;;15.10;1.00;;;;;;5032295;28;20181;-79
2023/07/17 04:57:10;;;;;;;3.10;2.27;;;15.20;1.00;;;;;;5031044;28;20669;-79
2023/07/17 04:59:35;;;;;;;4.17;2.77;;;15.20;99.90;;;;;;5030314;28;20554;-75
2023/07/17 05:02:01;;;;;;;5.33;2.93;;;15.10;1.00;;;;;;5032110;28;20193;-79
2023/07/17 05:04:26;;;;;;;4.83;2.27;;;15.10;1.00;;;;;;5031959;28;20228;-79
2023/07/17 05:06:52;;;;;;;3.40;2.37;;;15.20;99.90;;;;;;5031670;28;20238;-77
2023/07/17 05:09:18;;;;;;;5.33;2.57;;;15.20;1.00;;;;;;5030711;28;20170;-77
2023/07/17 05:11:44;;;;;;;4.30;2.90;;;15.20;1.00;;;;;;5030376;28;20183;-76
2023/07/17 05:14:09;;;;;;;5.03;2.93;;;15.20;99.90;;;;;;5032109;28;20178;-76
2023/07/17 05:16:35;;;;;;;6.50;3.17;;;15.40;99.90;;;;;;5030922;28;20184;-77
2023/07/17 05:19:01;;;;;;;3.93;2.90;;;15.50;99.90;;;;;;5032115;28;20204;-75
2023/07/17 05:21:26;;;;;;;4.67;2.40;;;15.50;99.90;;;;;;5030046;28;20185;-77
2023/07/17 05:23:52;;;;;;;5.57;2.47;;;15.60;99.90;;;;;;5031981;28;20197;-77
2023/07/17 05:26:17;;;;;;;4.23;2.63;;;15.90;99.90;;;;;;5031905;28;20205;-78
2023/07/17 05:28:43;;;;;;;3.30;2.00;;;16.10;1.00;;;;;;5031902;28;20198;-78
2023/07/17 05:31:09;;;;;;;3.03;2.53;;;16.50;99.90;;;;;;5031300;28;20229;-79
2023/07/17 05:33:35;;;;;;;3.07;2.20;;;16.90;99.90;;;;;;5031840;28;20178;-79
2023/07/17 05:36:00;;;;;;;2.50;1.83;;;17.10;1.00;;;;;;5030413;28;20213;-79
2023/07/17 05:38:26;;;;;;;2.50;1.43;;;17.30;99.90;;;;;;5030709;28;20202;-79
2023/07/17 05:41:02;;;;;;;3.47;2.13;;;17.50;27.40;;;;;;5031260;28;20186;-78
2023/07/17 05:43:31;;;;;;;4.13;1.17;;;17.60;81.40;;;;;;5029310;28;20208;-75
2023/07/17 05:45:57;;;;;;;2.43;1.37;;;17.80;1.00;;;;;;5032341;28;20239;-77
2023/07/17 05:48:23;;;;;;;1.10;1.00;;;18.30;99.90;;;;;;5033772;28;20248;-76
2023/07/17 05:50:48;;;;;;;3.93;2.10;;;19.00;99.90;;;;;;5034724;28;20174;-77
2023/07/17 05:53:14;;;;;;;5.27;2.40;;;19.10;99.90;;;;;;5035249;28;20170;-78
2023/07/17 05:55:40;;;;;;;5.47;3.00;;;19.40;1.00;;;;;;5035600;28;20178;-77
2023/07/17 05:58:05;;;;;;;4.80;2.57;;;19.40;1.00;;;;;;5036255;28;20225;-74
2023/07/17 06:00:31;;;;;;;5.87;2.50;;;19.50;1.00;;;;;;5034335;28;20178;-75
2023/07/17 06:02:56;;;;;;;3.93;2.60;;;19.60;1.00;;;;;;5035962;28;20593;-77
2023/07/17 06:05:22;;;;;;;5.10;2.20;;;19.40;1.00;;;;;;5034915;28;20637;-77
2023/07/17 06:07:47;;;;;;;6.37;2.97;;;19.00;1.00;;;;;;5036127;28;20244;-77
2023/07/17 06:10:13;;;;;;;5.53;2.97;;;18.70;99.90;;;;;;5034409;28;20177;-79
2023/07/17 06:12:39;;;;;;;4.57;2.30;;;18.50;1.00;;;;;;5034699;28;20308;-76
2023/07/17 06:15:06;;;;;;;3.33;2.20;;;18.50;1.00;;;;;;5035598;28;20170;-76
2023/07/17 06:17:32;;;;;;;3.77;2.27;;;18.40;1.00;;;;;;5035430;28;20221;-76
2023/07/17 06:19:57;;;;;;;4.60;2.67;;;18.40;99.90;;;;;;5033873;28;20238;-76
2023/07/17 06:22:23;;;;;;;6.90;2.80;;;18.40;99.90;;;;;;5034586;28;20185;-77
2023/07/17 06:24:49;;;;;;;3.23;2.37;;;18.40;99.90;;;;;;5035781;28;20185;-78
2023/07/17 06:27:15;;;;;;;3.70;2.43;;;18.40;99.90;;;;;;5035407;28;20336;-75
2023/07/17 06:29:41;;;;;;;4.73;2.20;;;18.40;99.90;;;;;;5033805;28;20269;-75
2023/07/17 06:32:07;;;;;;;4.10;2.07;;;18.40;99.90;;;;;;5034204;28;20309;-76
2023/07/17 06:34:33;;;;;;;6.53;2.47;;;18.50;99.90;;;;;;5034545;28;20175;-76
2023/07/17 06:37:00;;;;;;;5.43;2.70;;;18.60;99.90;;;;;;5035472;28;20600;-75
2023/07/17 06:39:26;;;;;;;3.83;2.57;;;18.70;99.90;;;;;;5035125;28;20669;-75
2023/07/17 06:41:52;;;;;;;4.00;1.90;;;18.90;1.00;;;;;;5028623;28;20195;-75
2023/07/17 06:44:18;;;;;;;4.30;2.50;;;19.00;1.00;;;;;;5053937;28;20185;-76
2023/07/17 06:46:43;;;;;;;5.47;2.30;;;19.10;1.00;;;;;;5056259;28;20202;-73
2023/07/17 06:49:09;;;;;;;4.80;2.50;;;19.20;1.00;;;;;;5048444;28;20613;-75
2023/07/17 06:51:34;;;;;;;4.70;2.80;;;19.30;99.90;;;;;;5033965;28;20181;-75
2023/07/17 06:54:00;;;;;;;4.63;2.67;;;19.30;99.90;;;;;;5036177;28;20169;-75
2023/07/17 06:56:25;;;;;;;3.97;2.73;;;19.40;99.90;;;;;;5034950;28;20270;-75
2023/07/17 06:58:51;;;;;;;4.90;2.97;;;19.50;99.90;;;;;;5035746;28;20206;-75
2023/07/17 07:01:17;;;;;;;4.30;3.10;;;19.60;1.00;;;;;;5033799;28;20198;-77
2023/07/17 07:03:43;;;;;;;4.90;3.00;;;19.70;1.00;;;;;;5034040;28;20175;-76
2023/07/17 07:06:09;;;;;;;5.23;3.20;;;19.70;1.00;;;;;;5035436;28;20201;-76
2023/07/17 07:08:34;;;;;;;4.87;2.70;;;19.80;1.00;;;;;;5035414;28;20190;-76
2023/07/17 07:11:02;;;;;;;4.43;2.70;;;20.00;1.00;;;;;;5034425;28;20250;-76
2023/07/17 07:13:28;;;;;;;3.83;2.87;;;20.10;1.00;;;;;;5033634;28;20654;-75
2023/07/17 07:15:54;;;;;;;3.33;3.03;;;20.10;1.00;;;;;;5033460;28;20659;-76
2023/07/17 07:18:20;;;;;;;3.90;2.77;;;20.20;99.90;;;;;;5034982;28;20737;-76
2023/07/17 07:20:47;;;;;;;5.22;2.78;;;20.40;99.90;;;;;;5033401;28;20174;-76
2023/07/17 07:23:13;;;;;;;4.27;2.83;;;20.40;99.90;;;;;;5032916;28;20178;-75
2023/07/17 07:25:39;;;;;;;5.03;2.80;;;20.40;1.00;;;;;;5031070;28;20209;-77
2023/07/17 07:28:05;;;;;;;4.63;2.78;;;20.50;16.40;;;;;;5033365;28;20688;-76
2023/07/17 07:30:31;;;;;;;3.60;2.58;;;20.60;99.90;;;;;;5032878;28;20206;-75
2023/07/17 07:32:57;;;;;;;3.25;2.58;;;20.80;99.90;;;;;;5034817;28;20252;-76
2023/07/17 07:35:23;;;;;;;4.95;2.97;;;20.80;1.00;;;;;;5034464;28;20170;-76
2023/07/17 07:37:49;;;;;;;5.22;2.72;;;20.90;1.00;;;;;;5033199;28;20357;-77
2023/07/17 07:40:15;;;;;;;4.10;2.58;;;20.90;1.00;;;;;;5032630;28;20192;-76
2023/07/17 07:42:42;;;;;;;4.32;2.45;;;21.00;99.90;;;;;;5032995;28;20205;-76
2023/07/17 07:45:09;;;;;;;2.85;2.40;;;21.20;99.90;;;;;;5033712;28;20197;-76
2023/07/17 07:47:35;;;;;;;4.25;2.50;;;21.30;99.90;;;;;;5018285;28;20202;-76
2023/07/17 07:50:00;;;;;;;4.07;2.47;;;21.40;99.90;;;;;;5033304;28;20197;-75
2023/07/17 07:52:27;;;;;;;3.65;2.45;;;21.50;99.90;;;;;;5033860;28;20174;-75
2023/07/17 07:54:53;;;;;;;5.90;2.88;;;21.60;99.90;;;;;;5033351;28;20187;-76
2023/07/17 07:57:19;;;;;;;4.43;2.55;;;21.70;99.90;;;;;;5034550;28;20190;-75
2023/07/17 07:59:45;;;;;;;4.63;2.33;;;21.80;1.00;;;;;;5032503;28;20227;-75
2023/07/17 08:02:11;;;;;;;4.70;2.20;;;21.80;1.00;;;;;;5033503;28;20659;-75
2023/07/17 08:04:37;;;;;;;5.30;2.72;;;21.90;1.00;;;;;;5033077;28;20178;-75
2023/07/17 08:07:03;;;;;;;3.85;2.20;;;21.90;1.00;;;;;;5033486;28;20248;-75
2023/07/17 08:09:29;;;;;;;3.00;2.17;;;22.00;1.00;;;;;;5033372;28;20170;-76
2023/07/17 08:11:55;;;;;;;1.20;1.00;;;22.30;1.00;;;;;;5032583;28;20178;-76
2023/07/17 08:14:21;;;;;;;3.97;1.90;;;22.30;1.00;;;;;;5033825;28;20224;-75
2023/07/17 08:16:47;;;;;;;6.30;2.22;;;22.50;1.00;;;;;;5033337;28;20178;-76
2023/07/17 08:19:13;;;;;;;2.60;1.58;;;22.70;1.00;;;;;;5033554;28;20179;-76
2023/07/17 08:21:39;;;;;;;3.33;1.73;;;22.80;1.00;;;;;;5033267;28;20174;-76
2023/07/17 08:24:05;;;;;;;4.50;1.98;;;22.90;1.00;;;;;;5033243;28;20174;-75
2023/07/17 08:26:31;;;;;;;2.30;1.50;;;22.90;1.00;;;;;;5048899;28;20652;-75
2023/07/17 08:28:56;;;;;;;3.65;1.83;;;23.00;1.00;;;;;;5031983;28;20193;-75
2023/07/17 08:31:22;;;;;;;3.20;1.58;;;23.20;1.00;;;;;;5031656;28;20171;-75
2023/07/17 08:33:48;;;;;;;2.58;1.40;;;23.30;1.00;;;;;;5034851;28;20178;-75
2023/07/17 08:36:13;;;;;;;3.13;1.70;;;23.40;1.00;;;;;;5035719;28;20179;-75
2023/07/17 08:38:39;;;;;;;5.07;2.13;;;23.40;1.00;;;;;;5034726;28;20289;-76
2023/07/17 08:41:06;;;;;;;3.03;1.52;;;23.40;1.00;;;;;;5031406;28;20703;-76
2023/07/17 08:43:33;;;;;;;2.72;1.60;;;23.50;1.00;;;;;;5014128;28;20171;-76
2023/07/17 08:45:58;;;;;;;2.08;1.40;;;23.50;99.90;;;;;;5015875;28;20202;-75
2023/07/17 08:48:25;;;;;;;4.55;1.58;;;23.30;99.90;;;;;;5015194;28;20206;-75
2023/07/17 08:50:51;;;;;;;1.75;1.13;;;23.30;99.90;;;;;;5026530;28;20170;-76
2023/07/17 08:53:19;;;;;;;2.15;1.50;;;23.20;99.90;;;;;;5028311;28;20182;-76
2023/07/17 08:55:46;;;;;;;1.85;1.38;;;23.20;99.90;;;;;;5012626;28;20197;-77
2023/07/17 08:58:12;;;;;;;3.22;1.50;;;23.10;99.90;;;;;;5012644;28;20431;-76
2023/07/17 09:00:39;;;;;;;2.70;2.00;;;22.80;99.90;;;;;;5016921;28;20174;-76
2023/07/17 09:03:05;;;;;;;3.03;1.80;;;22.50;1.00;;;;;;5033747;28;20178;-75
2023/07/17 09:05:31;;;;;;;3.70;1.95;;;22.80;1.00;;;;;;5034990;28;20197;-76
2023/07/17 09:07:56;;;;;;;3.55;1.60;;;23.30;1.00;;;;;;5034220;28;20220;-76
2023/07/17 09:10:23;;;;;;;4.07;1.60;;;23.70;99.90;;;;;;5031861;28;20649;-77
2023/07/17 09:12:57;;;;;;;2.92;1.70;;;24.10;99.90;;;;;;5034530;28;20174;-76
2023/07/17 09:15:24;;;;;;;4.45;1.70;;;24.10;99.90;;;;;;5034362;28;20162;-76
2023/07/17 09:17:50;;;;;;;2.28;1.63;;;23.90;99.90;;;;;;5032391;28;20197;-76
2023/07/17 09:20:17;;;;;;;2.97;1.50;;;23.80;99.90;;;;;;5027942;28;20167;-77
2023/07/17 09:22:43;;;;;;;3.53;1.70;;;23.50;99.90;;;;;;5015734;28;20166;-77
2023/07/17 09:25:10;;;;;;;2.85;1.40;;;23.40;99.90;;;;;;5018897;28;20586;-76
2023/07/17 09:27:47;;;;;;;2.95;1.70;;;23.20;99.90;;;;;;5020395;28;20207;-76
2023/07/17 09:30:15;;;;;;;2.92;1.63;;;22.90;99.90;;;;;;5023382;28;20174;-76
2023/07/17 09:32:41;;;;;;;3.40;1.75;;;22.70;99.90;;;;;;5036863;28;20170;-78
2023/07/17 09:35:08;;;;;;;3.40;1.60;;;22.60;99.90;;;;;;5035162;28;20171;-78
2023/07/17 09:37:35;;;;;;;3.70;1.58;;;22.80;99.90;;;;;;5035103;28;20201;-78
2023/07/17 09:40:10;;;;;;;3.97;1.70;;;22.90;99.90;;;;;;5033235;28;20181;-75
2023/07/17 09:42:41;;;;;;;3.80;1.60;;;22.90;99.90;;;;;;5017955;28;20155;-75
2023/07/17 09:45:07;;;;;;;2.72;1.80;;;22.80;99.90;;;;;;5016549;28;20179;-75
2023/07/17 09:47:33;;;;;;;2.80;1.30;;;22.90;99.90;;;;;;5017633;28;20652;-75
2023/07/17 09:50:01;;;;;;;1.58;1.40;;;23.10;99.90;;;;;;5020159;28;20258;-75
2023/07/17 09:52:31;;;;;;;2.53;1.30;;;23.20;99.90;;;;;;5017134;28;20248;-76
2023/07/17 09:55:00;;;;;;;3.25;1.33;;;23.00;99.90;;;;;;5015922;28;20167;-76
2023/07/17 09:57:28;;;;;;;5.40;2.10;;;22.70;99.90;;;;;;5016559;28;20656;-81
2023/07/17 09:59:58;;;;;;;2.22;1.48;;;22.60;99.90;;;;;;5038343;23;20222;-78
2023/07/17 10:02:38;;;;;;;2.90;1.60;;;22.70;99.90;;;;;;5019667;28;20167;-83
2023/07/17 10:05:05;;;;;;;2.00;1.50;;;23.20;99.90;;;;;;5020660;28;20178;-85
2023/07/17 10:07:35;;;;;;;3.15;1.60;;;23.80;99.90;;;;;;5020404;28;20249;-84
2023/07/17 10:10:03;;;;;;;3.28;1.70;;;24.30;99.90;;;;;;5021674;28;20195;-84
2023/07/17 10:12:29;;;;;;;4.75;1.70;;;24.70;99.90;;;;;;5023850;28;20247;-83
2023/07/17 10:14:55;;;;;;;2.30;1.50;;;25.00;99.90;;;;;;5023196;28;20661;-85
2023/07/17 10:17:34;;;;;;;2.53;1.55;;;24.90;99.90;;;;;;5024781;28;20297;-83
2023/07/17 10:20:07;;;;;;;4.22;2.08;;;24.80;99.90;;;;;;5021168;28;20195;-82
2023/07/17 10:22:35;;;;;;;2.20;1.50;;;24.70;99.90;;;;;;5020954;28;20175;-84
2023/07/17 10:25:21;;;;;;;3.40;1.73;;;24.90;99.90;;;;;;5022312;28;20179;-80
2023/07/17 10:27:59;;;;;;;1.73;1.40;;;24.50;99.90;;;;;;5024438;28;20183;-80
2023/07/17 10:30:29;;;;;;;2.65;1.55;;;24.30;99.90;;;;;;5021218;28;20600;-80
2023/07/17 10:33:13;;;;;;;1.95;1.30;;;24.00;99.90;;;;;;5022272;28;20171;-80
2023/07/17 10:35:50;;;;;;;1.92;1.25;;;24.10;99.90;;;;;;5023177;28;20527;-79
2023/07/17 10:38:18;;;;;;;2.90;1.50;;;24.60;99.90;;;;;;5023845;28;20178;-81
2023/07/17 10:40:44;;;;;;;2.15;1.48;;;24.80;99.90;;;;;;5020505;28;20187;-81
2023/07/17 10:43:15;;;;;;;2.20;1.38;;;24.70;99.90;;;;;;5022691;28;20171;-80
2023/07/17 10:45:41;;;;;;;2.70;1.40;;;24.60;99.90;;;;;;5022020;28;20221;-80
2023/07/17 10:48:06;;;;;;;2.28;1.48;;;24.90;99.90;;;;;;5024356;28;20234;-80
2023/07/17 10:50:32;;;;;;;2.22;1.65;;;25.20;99.90;;;;;;5021912;28;20214;-82
2023/07/17 10:53:05;;;;;;;2.75;1.52;;;25.30;99.90;;;;;;5022538;28;20171;-81
2023/07/17 10:55:32;;;;;;;2.15;1.65;;;25.20;99.90;;;;;;5021656;28;20646;-81
2023/07/17 10:57:59;;;;;;;3.30;1.77;;;25.10;99.90;;;;;;5018425;28;20211;-80
2023/07/17 11:00:25;;;;;;;2.55;1.70;;;25.10;99.90;;;;;;5019891;28;20203;-80
2023/07/17 11:02:51;;;;;;;4.13;1.80;;;25.20;99.90;;;;;;5016326;28;20178;-83
2023/07/17 11:05:17;;;;;;;2.42;1.80;;;25.20;99.90;;;;;;5018175;28;20176;-85
2023/07/17 11:07:42;;;;;;;3.25;2.00;;;25.10;99.90;;;;;;5019986;28;20353;-82
2023/07/17 11:10:13;;;;;;;3.42;1.90;;;24.90;99.90;;;;;;5017664;28;20198;-81
2023/07/17 11:12:40;;;;;;;3.80;2.10;;;24.60;99.90;;;;;;5017194;28;20178;-81
2023/07/17 11:15:17;;;;;;;12.80;2.28;;;24.40;99.90;;;;;;5018763;28;20258;-82
2023/07/17 11:17:42;;;;;;;4.15;1.80;;;24.30;99.90;;;;;;5018272;28;20178;-82
2023/07/17 11:20:08;;;;;;;4.40;2.17;;;24.30;99.90;;;;;;5017811;28;20194;-81
2023/07/17 11:22:36;;;;;;;13.05;2.53;;;24.50;99.90;;;;;;5017168;28;20325;-82
2023/07/17 11:25:03;;;;;;;3.75;1.98;;;24.80;99.90;;;;;;5019187;28;20178;-83
2023/07/17 11:27:29;;;;;;;3.03;1.80;;;25.20;99.90;;;;;;5018886;28;20270;-82
2023/07/17 11:29:54;;;;;;;7.13;2.20;;;25.00;99.90;;;;;;5016101;28;20669;-80
2023/07/17 11:32:20;;;;;;;2.60;2.05;;;25.10;99.90;;;;;;5017346;28;20171;-80
2023/07/17 11:34:53;;;;;;;4.05;2.17;;;25.20;99.90;;;;;;5016272;28;20171;-79
2023/07/17 11:37:37;;;;;;;3.17;2.05;;;25.30;99.90;;;;;;5016864;28;20179;-81
2023/07/17 11:40:08;;;;;;;4.38;1.75;;;25.60;99.90;;;;;;4998128;28;20199;-81
2023/07/17 11:42:55;;;;;;;2.30;1.60;;;25.30;99.90;;;;;;4998181;28;20172;-82
2023/07/17 11:45:25;;;;;;;3.55;1.65;;;25.20;99.90;;;;;;4995457;28;20180;-81
2023/07/17 11:47:53;;;;;;;4.00;1.90;;;25.10;99.90;;;;;;5001187;28;20182;-83
2023/07/17 11:50:20;;;;;;;2.70;1.85;;;25.00;99.90;;;;;;5020414;28;20210;-82
2023/07/17 11:52:45;;;;;;;4.50;1.75;;;24.80;99.90;;;;;;5020269;28;20194;-82
2023/07/17 11:55:11;;;;;;;3.38;1.75;;;24.70;99.90;;;;;;5019977;28;20221;-81
2023/07/17 11:57:37;;;;;;;2.08;1.63;;;24.70;99.90;;;;;;5023484;28;20305;-81
2023/07/17 12:00:10;;;;;;;2.17;1.75;;;24.70;99.90;;;;;;5022823;28;20566;-81
2023/07/17 12:02:35;;;;;;;3.47;1.60;;;25.30;99.90;;;;;;5024437;28;20253;-82
2023/07/17 12:05:01;;;;;;;2.90;1.80;;;26.00;99.90;;;;;;5022837;28;20174;-80
2023/07/17 12:07:27;;;;;;;1.40;1.30;;;26.30;99.90;;;;;;5024216;28;20198;-81
2023/07/17 12:09:53;;;;;;;3.95;2.20;;;26.60;99.90;;;;;;5021223;28;20194;-80
2023/07/17 12:12:18;;;;;;;2.97;1.52;;;26.50;99.90;;;;;;5021828;28;20167;-81
2023/07/17 12:14:44;;;;;;;4.57;1.63;;;26.70;99.90;;;;;;5024544;28;20167;-81
2023/07/17 12:17:09;;;;;;;2.00;1.80;;;26.70;98.60;;;;;;5024452;28;20175;-81
2023/07/17 12:19:35;;;;;;;3.42;1.80;;;26.60;90.30;;;;;;5024628;28;20213;-80
2023/07/17 12:22:00;;;;;;;3.35;1.95;;;26.90;87.20;;;;;;5022000;28;20175;-81
2023/07/17 12:24:26;;;;;;;2.30;1.58;;;26.80;73.00;;;;;;5024075;28;20179;-81
2023/07/17 12:26:52;;;;;;;3.72;1.70;;;26.60;79.80;;;;;;5022134;28;20282;-81
2023/07/17 12:29:17;;;;;;;3.92;2.20;;;26.50;81.80;;;;;;5024124;28;20195;-81
2023/07/17 12:31:43;;;;;;;2.67;1.73;;;26.40;87.50;;;;;;5021530;28;20171;-81
2023/07/17 12:34:09;;;;;;;3.55;1.77;;;26.50;90.10;;;;;;5022098;28;20217;-81
2023/07/17 12:36:35;;;;;;;4.97;1.83;;;26.90;90.30;;;;;;5022563;28;20190;-81
2023/07/17 12:39:16;;;;;;;3.50;1.90;;;26.50;75.30;;;;;;5021188;28;20175;-82
2023/07/17 12:41:43;;;;;;;3.78;1.90;;;26.60;75.50;;;;;;5000483;28;20195;-81
2023/07/17 12:44:10;;;;;;;2.33;1.70;;;26.80;77.10;;;;;;5002072;28;20255;-81
2023/07/17 12:46:36;;;;;;;2.13;1.63;;;26.90;72.00;;;;;;5003882;28;20231;-81